Time;durP1;ratioP1;P1;durP2;ratioP2;P2;SDS_P1;SDS_P2;PMS_P1;PMS_P2;Temp;Humidity;BMP_temperature;BMP_pressure;BME280_temperature;BME280_humidity;BME280_pressure;Samples;Min_cycle;Max_cycle;Signal;HPM_P1;HPM_P2
2020/12/15 00:02:08;;;;;;;;;;;;;;;6.86;100.00;97504.03;5110720;28;19931;-78
2020/12/15 00:04:38;;;;;;;;;;;;;;;6.80;100.00;97505.78;5094933;28;19928;-78
2020/12/15 00:07:05;;;;;;;;;;;;;;;6.80;100.00;97506.53;5077018;28;19924;-79
2020/12/15 00:09:31;;;;;;;;;;;;;;;6.78;100.00;97508.97;5093340;28;20027;-78
2020/12/15 00:11:58;;;;;;;;;;;;;;;6.83;100.00;97504.91;5094864;28;19928;-78
2020/12/15 00:14:24;;;;;;;;;;;;;;;6.77;100.00;97490.00;5094779;28;20012;-78
2020/12/15 00:16:56;;;;;;;;;;;;;;;6.77;100.00;97929.34;5094754;28;19924;-78
2020/12/15 00:19:23;;;;;;;;;;;;;;;6.81;100.00;97923.72;5094718;28;19931;-78
2020/12/15 00:21:49;;;;;;;;;;;;;;;6.79;100.00;97924.16;5076688;28;19932;-78
2020/12/15 00:24:16;;;;;;;;;;;;;;;6.72;100.00;97923.50;5075852;28;19962;-78
2020/12/15 00:26:42;;;;;;;;;;;;;;;6.69;100.00;97924.38;5094678;28;19932;-78
2020/12/15 00:29:11;;;;;;;;;;;;;;;6.70;100.00;97918.38;5110128;28;19924;-78
2020/12/15 00:31:38;;;;;;;;;;;;;;;6.67;100.00;97918.44;5094427;28;19928;-78
2020/12/15 00:34:04;;;;;;;;;;;;;;;6.73;100.00;97922.28;5094595;28;19960;-78
2020/12/15 00:36:31;;;;;;;;;;;;;;;6.72;100.00;97918.75;5059759;28;20291;-78
2020/12/15 00:38:58;;;;;;;;;;;;;;;6.70;100.00;97920.38;5094128;28;20022;-78
2020/12/15 00:41:24;;;;;;;;;;;;;;;6.65;100.00;97915.31;5094319;28;19927;-78
2020/12/15 00:43:51;;;;;;;;;;;;;;;6.61;100.00;97909.03;5094223;28;19969;-78
2020/12/15 00:46:18;;;;;;;;;;;;;;;6.53;100.00;97913.16;5094268;28;20433;-78
2020/12/15 00:48:46;;;;;;;;;;;;;;;6.57;100.00;97908.34;5076354;28;19928;-78
2020/12/15 00:51:17;;;;;;;;;;;;;;;6.60;100.00;97911.06;5076226;28;19954;-78
2020/12/15 00:53:45;;;;;;;;;;;;;;;6.41;100.00;97911.00;5076033;28;19990;-78
2020/12/15 00:56:14;;;;;;;;;;;;;;;6.39;100.00;97913.41;5076239;28;20027;-78
2020/12/15 00:58:41;;;;;;;;;;;;;;;6.34;100.00;97917.47;5075915;28;19963;-78
2020/12/15 01:01:09;;;;;;;;;;;;;;;6.35;100.00;97915.44;5076059;28;20107;-78
2020/12/15 01:03:36;;;;;;;;;;;;;;;6.33;100.00;97921.44;5076185;28;19924;-78
2020/12/15 01:06:03;;;;;;;;;;;;;;;6.31;100.00;97934.16;5059313;28;19959;-78
2020/12/15 01:08:31;;;;;;;;;;;;;;;6.35;100.00;97934.88;5075974;28;19924;-78
2020/12/15 01:11:03;;;;;;;;;;;;;;;6.40;100.00;97934.41;5093974;28;19930;-78
2020/12/15 01:13:32;;;;;;;;;;;;;;;6.44;100.00;97924.81;5042971;28;19924;-78
2020/12/15 01:16:04;;;;;;;;;;;;;;;6.45;100.00;97926.38;5092693;28;19930;-78
2020/12/15 01:18:31;;;;;;;;;;;;;;;6.41;100.00;97930.41;5076056;28;19928;-78
2020/12/15 01:20:58;;;;;;;;;;;;;;;6.32;100.00;97924.63;5075743;28;19935;-78
2020/12/15 01:23:24;;;;;;;;;;;;;;;6.22;100.00;97925.59;5109361;28;19924;-79
2020/12/15 01:25:59;;;;;;;;;;;;;;;6.31;100.00;97928.63;5075866;28;20371;-78
2020/12/15 01:28:26;;;;;;;;;;;;;;;6.36;100.00;97933.69;5075888;28;19977;-78
2020/12/15 01:30:53;;;;;;;;;;;;;;;6.32;100.00;97941.28;5075874;28;19928;-78
2020/12/15 01:33:20;;;;;;;;;;;;;;;6.33;100.00;97929.75;5093729;28;20009;-78
2020/12/15 01:36:05;;;;;;;;;;;;;;;6.42;100.00;97934.78;5063989;28;20295;-78
2020/12/15 01:38:46;;;;;;;;;;;;;;;6.47;100.00;97948.13;5079982;28;20005;-78
2020/12/15 01:41:21;;;;;;;;;;;;;;;6.48;100.00;97944.19;5079541;28;19924;-78
2020/12/15 01:43:57;;;;;;;;;;;;;;;6.34;100.00;97934.13;5079536;28;20015;-78
2020/12/15 01:46:27;;;;;;;;;;;;;;;6.39;100.00;97952.25;5079866;28;20032;-78
2020/12/15 01:48:55;;;;;;;;;;;;;;;6.34;100.00;97944.41;5079534;28;19924;-78
2020/12/15 01:51:22;;;;;;;;;;;;;;;6.43;100.00;97941.88;5079579;28;19931;-78
2020/12/15 01:53:58;;;;;;;;;;;;;;;6.40;100.00;97953.81;5079368;28;19970;-80
2020/12/15 01:56:30;;;;;;;;;;;;;;;6.35;100.00;97946.78;5063410;28;19931;-78
2020/12/15 01:59:04;;;;;;;;;;;;;;;6.34;100.00;97952.72;5079216;28;19931;-80
2020/12/15 02:01:45;;;;;;;;;;;;;;;6.16;100.00;97950.25;5113086;28;19928;-78
2020/12/15 02:04:20;;;;;;;;;;;;;;;6.15;100.00;97956.22;5063929;28;19924;-78
2020/12/15 02:07:02;;;;;;;;;;;;;;;6.11;100.00;97947.16;5079066;28;20383;-81
2020/12/15 02:09:29;;;;;;;;;;;;;;;6.11;100.00;97961.03;5079055;28;19924;-80
2020/12/15 02:12:16;;;;;;;;;;;;;;;6.11;100.00;97955.50;5078760;28;19927;-78
2020/12/15 02:14:45;;;;;;;;;;;;;;;5.94;100.00;97953.78;5079543;28;19952;-78
2020/12/15 02:17:19;;;;;;;;;;;;;;;5.92;100.00;97947.88;5078981;28;19965;-78
2020/12/15 02:20:07;;;;;;;;;;;;;;;5.93;100.00;97946.66;5096206;28;20352;-77
2020/12/15 02:22:42;;;;;;;;;;;;;;;5.91;100.00;97943.53;5078601;28;19930;-79
2020/12/15 02:25:10;;;;;;;;;;;;;;;5.88;100.00;97939.59;5061717;28;19924;-79
2020/12/15 02:27:37;;;;;;;;;;;;;;;5.89;100.00;97940.41;5078768;28;19924;-79
2020/12/15 02:30:06;;;;;;;;;;;;;;;5.80;100.00;97948.44;5096648;28;19928;-79
2020/12/15 02:32:34;;;;;;;;;;;;;;;5.81;100.00;97941.66;5095317;28;20033;-79
2020/12/15 02:35:03;;;;;;;;;;;;;;;5.86;100.00;97949.56;5112292;28;20015;-79
2020/12/15 02:37:30;;;;;;;;;;;;;;;5.88;100.00;97961.03;5078523;28;19959;-79
2020/12/15 02:40:01;;;;;;;;;;;;;;;5.90;100.00;97959.38;5096398;28;19924;-79
2020/12/15 02:42:46;;;;;;;;;;;;;;;5.81;100.00;97945.22;5096306;28;20026;-78
2020/12/15 02:45:17;;;;;;;;;;;;;;;5.82;100.00;97946.03;5096468;28;19924;-79
2020/12/15 02:47:44;;;;;;;;;;;;;;;5.90;100.00;97939.19;5077926;28;19931;-79
2020/12/15 02:50:20;;;;;;;;;;;;;;;5.85;100.00;97945.19;5096246;28;20274;-79
2020/12/15 02:52:49;;;;;;;;;;;;;;;5.83;100.00;97942.06;5078230;28;19928;-79
2020/12/15 02:55:16;;;;;;;;;;;;;;;5.79;100.00;97941.28;5078141;28;19923;-79
2020/12/15 02:57:47;;;;;;;;;;;;;;;5.77;100.00;97932.63;5096201;28;19924;-79
2020/12/15 03:00:16;;;;;;;;;;;;;;;5.81;100.00;97927.81;5094873;28;20291;-79
2020/12/15 03:02:43;;;;;;;;;;;;;;;5.79;100.00;97927.44;5078068;28;19924;-79
2020/12/15 03:05:10;;;;;;;;;;;;;;;5.79;100.00;97932.97;5095973;28;19962;-79
2020/12/15 03:07:40;;;;;;;;;;;;;;;5.83;100.00;97919.91;5094075;28;19930;-78
2020/12/15 03:10:07;;;;;;;;;;;;;;;5.90;100.00;97925.31;5077798;28;20425;-79
2020/12/15 03:12:41;;;;;;;;;;;;;;;5.89;100.00;97926.53;5077989;28;19947;-79
2020/12/15 03:15:13;;;;;;;;;;;;;;;5.79;100.00;97913.56;5078018;28;19924;-79
2020/12/15 03:17:40;;;;;;;;;;;;;;;5.73;100.00;97909.72;5077591;28;19924;-79
2020/12/15 03:20:07;;;;;;;;;;;;;;;5.78;100.00;97912.81;5077647;28;19924;-79
2020/12/15 03:22:40;;;;;;;;;;;;;;;5.79;100.00;97921.91;5077525;28;19924;-79
2020/12/15 03:25:06;;;;;;;;;;;;;;;5.72;100.00;97919.25;5077599;28;19924;-79
2020/12/15 03:27:44;;;;;;;;;;;;;;;5.76;100.00;97914.41;5077638;28;19924;-79
2020/12/15 03:30:17;;;;;;;;;;;;;;;5.66;100.00;97909.81;5077537;28;19928;-79
2020/12/15 03:32:44;;;;;;;;;;;;;;;5.76;100.00;97909.66;5110901;28;20053;-78
2020/12/15 03:35:11;;;;;;;;;;;;;;;5.66;100.00;97909.81;5077434;28;19923;-79
2020/12/15 03:37:38;;;;;;;;;;;;;;;5.57;100.00;97905.59;5111027;28;20015;-79
2020/12/15 03:40:05;;;;;;;;;;;;;;;5.67;100.00;97920.50;5077317;28;19924;-79
2020/12/15 03:42:50;;;;;;;;;;;;;;;5.77;100.00;97927.84;5095232;28;19935;-79
2020/12/15 03:45:22;;;;;;;;;;;;;;;5.76;100.00;97942.13;5077165;28;19931;-80
2020/12/15 03:47:48;;;;;;;;;;;;;;;5.66;100.00;97932.78;5077081;28;20006;-79
2020/12/15 03:50:15;;;;;;;;;;;;;;;5.50;100.00;97936.16;5077260;28;20058;-79
2020/12/15 03:52:42;;;;;;;;;;;;;;;5.60;100.00;97945.53;5060160;28;20385;-79
2020/12/15 03:55:14;;;;;;;;;;;;;;;5.54;100.00;97947.22;5077010;28;20333;-80
2020/12/15 03:57:51;;;;;;;;;;;;;;;5.60;100.00;97953.84;5092744;28;20057;-80
2020/12/15 04:00:34;;;;;;;;;;;;;;;5.54;100.00;97970.16;5076262;28;19924;-79
2020/12/15 04:03:08;;;;;;;;;;;;;;;5.57;100.00;97977.63;5076824;28;20008;-80
2020/12/15 04:05:53;;;;;;;;;;;;;;;5.63;100.00;97977.97;5076852;28;19924;-79
2020/12/15 04:08:22;;;;;;;;;;;;;;;5.63;100.00;97989.06;5110512;28;19924;-80
2020/12/15 04:10:52;;;;;;;;;;;;;;;5.54;100.00;97986.78;5076891;28;19928;-79
2020/12/15 04:13:26;;;;;;;;;;;;;;;5.53;100.00;98007.38;5076928;28;19951;-80
2020/12/15 04:15:56;;;;;;;;;;;;;;;5.50;100.00;98008.19;5076610;28;19924;-79
2020/12/15 04:18:29;;;;;;;;;;;;;;;5.54;100.00;98022.78;5076700;28;19928;-80
2020/12/15 04:20:58;;;;;;;;;;;;;;;5.45;100.00;98019.75;5093222;28;19935;-80
2020/12/15 04:23:26;;;;;;;;;;;;;;;5.55;100.00;98024.38;5094681;28;19924;-79
2020/12/15 04:25:54;;;;;;;;;;;;;;;5.53;100.00;98029.53;5076740;28;20303;-80
2020/12/15 04:28:24;;;;;;;;;;;;;;;5.53;100.00;98048.13;5060649;28;19928;-80
2020/12/15 04:30:51;;;;;;;;;;;;;;;5.49;100.00;98045.44;5110037;28;19963;-80
2020/12/15 04:33:18;;;;;;;;;;;;;;;5.43;100.00;98054.59;5076312;28;20409;-80
2020/12/15 04:35:49;;;;;;;;;;;;;;;5.38;100.00;98044.75;5076518;28;19924;-80
2020/12/15 04:38:16;;;;;;;;;;;;;;;5.48;100.00;98054.94;5076773;28;19924;-80
2020/12/15 04:40:44;;;;;;;;;;;;;;;5.40;100.00;98060.97;5076399;28;19924;-80
2020/12/15 04:43:15;;;;;;;;;;;;;;;5.44;100.00;98070.81;5110212;28;19924;-79
2020/12/15 04:45:45;;;;;;;;;;;;;;;5.45;100.00;98083.47;5076161;28;19924;-80
2020/12/15 04:48:17;;;;;;;;;;;;;;;5.52;100.00;98088.94;5059891;28;19924;-79
2020/12/15 04:51:03;;;;;;;;;;;;;;;5.57;100.00;98091.22;5076541;28;20064;-80
2020/12/15 04:53:36;;;;;;;;;;;;;;;5.55;100.00;98099.19;5093043;28;19928;-80
2020/12/15 04:56:26;;;;;;;;;;;;;;;5.47;100.00;98097.69;5076286;28;19924;-80
2020/12/15 04:58:57;;;;;;;;;;;;;;;5.47;100.00;98124.59;5076032;28;19924;-80
2020/12/15 05:01:27;;;;;;;;;;;;;;;5.50;100.00;98121.00;5076174;28;19924;-80
2020/12/15 05:04:11;;;;;;;;;;;;;;;5.48;100.00;98132.50;5076056;28;19932;-80
2020/12/15 05:06:51;;;;;;;;;;;;;;;5.36;100.00;98315.84;5076178;28;19978;-80
2020/12/15 05:09:23;;;;;;;;;;;;;;;5.40;100.00;98607.53;5110120;28;19932;-80
2020/12/15 05:11:49;;;;;;;;;;;;;;;5.41;100.00;98647.09;5059363;28;19924;-80
2020/12/15 05:14:25;;;;;;;;;;;;;;;5.41;100.00;98645.13;5076018;28;19930;-80
2020/12/15 05:16:52;;;;;;;;;;;;;;;5.46;100.00;98644.72;5076058;28;19935;-80
2020/12/15 05:19:45;;;;;;;;;;;;;;;5.45;100.00;98642.34;5093082;28;19969;-80
2020/12/15 05:22:22;;;;;;;;;;;;;;;5.39;100.00;98650.25;5076083;28;19931;-80
2020/12/15 05:24:52;;;;;;;;;;;;;;;5.48;100.00;98658.16;5092377;28;19928;-80
2020/12/15 05:27:30;;;;;;;;;;;;;;;5.53;100.00;98655.78;5076018;28;19931;-80
2020/12/15 05:30:17;;;;;;;;;;;;;;;5.51;100.00;98669.22;5093581;28;19932;-80
2020/12/15 05:33:15;;;;;;;;;;;;;;;5.49;100.00;98663.31;5075940;28;20014;-80
2020/12/15 05:36:20;;;;;;;;;;;;;;;5.59;100.00;98670.00;5031571;28;19925;-80
2020/12/15 05:39:05;;;;;;;;;;;;;;;5.65;100.00;98675.94;5014998;28;19925;-80
2020/12/15 05:42:00;;;;;;;;;;;;;;;5.76;100.00;98668.38;5029916;28;19995;-79
2020/12/15 05:44:28;;;;;;;;;;;;;;;5.68;100.00;98666.81;5014950;28;19925;-80
2020/12/15 05:47:00;;;;;;;;;;;;;;;5.69;100.00;98673.94;5015356;28;20299;-80
2020/12/15 05:49:28;;;;;;;;;;;;;;;5.68;100.00;98666.81;4998497;28;19929;-79
2020/12/15 05:51:55;;;;;;;;;;;;;;;5.63;100.00;98664.47;5031458;28;19991;-80
2020/12/15 05:54:22;;;;;;;;;;;;;;;5.55;100.00;98683.88;5031324;28;19933;-79
2020/12/15 05:56:59;;;;;;;;;;;;;;;5.47;100.00;98674.00;5030935;28;19968;-77
2020/12/15 05:59:25;;;;;;;;;;;;;;;5.46;100.00;98675.19;5031192;28;20412;-78
2020/12/15 06:01:52;;;;;;;;;;;;;;;5.38;100.00;98676.38;5031340;28;20308;-75
2020/12/15 06:04:20;;;;;;;;;;;;;;;5.46;100.00;98671.63;5031028;28;19936;-79
2020/12/15 06:06:55;;;;;;;;;;;;;;;5.38;100.00;98668.06;5014454;28;19926;-79
2020/12/15 06:09:22;;;;;;;;;;;;;;;5.34;100.00;98658.19;5038630;28;20024;-79
2020/12/15 06:11:49;;;;;;;;;;;;;;;5.30;100.00;98674.81;5093348;28;19927;-79
2020/12/15 06:14:15;;;;;;;;;;;;;;;5.32;100.00;98682.72;5093570;28;19925;-79
2020/12/15 06:16:42;;;;;;;;;;;;;;;5.32;100.00;98669.66;5093556;28;19924;-79
2020/12/15 06:19:10;;;;;;;;;;;;;;;5.38;100.00;98676.38;5109060;28;20027;-80
2020/12/15 06:21:38;;;;;;;;;;;;;;;5.51;100.00;98685.84;5093413;28;20077;-79
2020/12/15 06:24:05;;;;;;;;;;;;;;;5.57;100.00;98692.56;5096958;28;19924;-79
2020/12/15 06:26:33;;;;;;;;;;;;;;;5.53;100.00;98689.03;5096812;28;19924;-79
2020/12/15 06:29:01;;;;;;;;;;;;;;;5.53;100.00;98688.22;5096977;28;20001;-79
2020/12/15 06:31:28;;;;;;;;;;;;;;;5.58;100.00;98696.94;5096800;28;19924;-79
2020/12/15 06:33:58;;;;;;;;;;;;;;;5.68;100.00;98694.53;5096724;28;20392;-79
2020/12/15 06:36:30;;;;;;;;;;;;;;;5.69;100.00;98701.66;5078747;28;19970;-80
2020/12/15 06:38:58;;;;;;;;;;;;;;;5.69;100.00;98685.03;5096776;28;20019;-79
2020/12/15 06:41:25;;;;;;;;;;;;;;;5.66;100.00;98691.38;5096318;28;20390;-79
2020/12/15 06:48:29;;;;;;;;;;;;;;;5.62;100.00;98696.16;5096401;28;20408;-79
2020/12/15 06:50:56;;;;;;;;;;;;;;;5.60;100.00;98689.00;5096372;28;19948;-79
2020/12/15 06:53:23;;;;;;;;;;;;;;;5.65;100.00;98687.03;5096274;28;19928;-79
2020/12/15 06:56:02;;;;;;;;;;;;;;;5.74;100.00;98692.94;5097652;28;19928;-79
2020/12/15 06:58:29;;;;;;;;;;;;;;;5.59;100.00;98686.63;5096066;28;19928;-79
2020/12/15 07:00:58;;;;;;;;;;;;;;;5.63;100.00;98688.19;5077803;28;19977;-79
2020/12/15 07:03:39;;;;;;;;;;;;;;;5.62;100.00;98679.50;5078930;28;20291;-81
2020/12/15 07:06:07;;;;;;;;;;;;;;;5.65;100.00;98689.81;5096313;28;20506;-75
2020/12/15 07:08:34;;;;;;;;;;;;;;;5.68;100.00;98700.09;5096253;28;19925;-82
2020/12/15 07:11:00;;;;;;;;;;;;;;;5.58;100.00;98677.53;5078512;28;19924;-81
2020/12/15 07:13:27;;;;;;;;;;;;;;;5.60;100.00;98688.22;5073217;28;19924;-83
2020/12/15 07:15:54;;;;;;;;;;;;;;;5.57;100.00;98681.50;5061016;28;19924;-82
2020/12/15 07:18:20;;;;;;;;;;;;;;;5.59;100.00;98687.44;5092379;28;19924;-82
2020/12/15 07:20:47;;;;;;;;;;;;;;;5.58;100.00;98696.94;5092808;28;20291;-82
2020/12/15 07:23:14;;;;;;;;;;;;;;;5.57;100.00;98700.88;5109084;27;19959;-82
2020/12/15 07:25:41;;;;;;;;;;;;;;;5.54;100.00;98701.69;5092956;28;20383;-82
2020/12/15 07:28:08;;;;;;;;;;;;;;;5.56;100.00;98709.59;5090763;28;19988;-82
2020/12/15 07:30:37;;;;;;;;;;;;;;;5.53;100.00;98711.19;5090878;28;20286;-81
2020/12/15 07:33:03;;;;;;;;;;;;;;;5.52;100.00;98709.63;5092123;28;19924;-75
2020/12/15 07:35:30;;;;;;;;;;;;;;;5.44;100.00;98713.59;5093143;28;20374;-79
2020/12/15 07:37:57;;;;;;;;;;;;;;;5.43;100.00;98717.56;5091953;28;19931;-80
2020/12/15 07:45:27;;;;;;;;;;;;;;;5.45;100.00;98742.88;5000726;28;19928;-80
2020/12/15 07:47:55;;;;;;;;;;;;;;;5.47;100.00;98737.72;5013617;28;20316;-79
2020/12/15 07:50:27;;;;;;;;;;;;;;;5.40;100.00;98740.50;5022730;28;19951;-80
2020/12/15 07:52:54;;;;;;;;;;;;;;;5.43;100.00;98734.19;5029031;28;19925;-79
2020/12/15 07:58:41;;;;;;;;;;;;;;;5.57;100.00;98761.09;5024190;28;19924;-79
2020/12/15 08:01:10;;;;;;;;;;;;;;;5.58;100.00;98763.47;5014727;28;20420;-78
2020/12/15 08:03:48;;;;;;;;;;;;;;;5.60;100.00;98766.59;5015120;28;19937;-77
2020/12/15 08:06:14;;;;;;;;;;;;;;;5.57;100.00;98756.31;5031819;28;19932;-77
2020/12/15 08:08:44;;;;;;;;;;;;;;;5.53;100.00;98763.84;5031894;28;19999;-77
2020/12/15 08:11:14;;;;;;;;;;;;;;;5.38;100.00;98742.88;5032027;28;19964;-78
2020/12/15 08:13:41;;;;;;;;;;;;;;;5.41;100.00;98778.09;5012952;28;20344;-77
2020/12/15 08:16:27;;;;;;;;;;;;;;;5.51;100.00;98762.69;5032110;28;19978;-81
2020/12/15 08:18:57;;;;;;;;;;;;;;;5.42;100.00;98763.06;5016686;28;19925;-79
2020/12/15 08:21:27;;;;;;;;;;;;;;;5.37;100.00;98757.94;5050408;28;20375;-80
2020/12/15 08:24:18;;;;;;;;;;;;;;;5.34;100.00;98767.03;5056353;28;20393;-79
2020/12/15 08:26:45;;;;;;;;;;;;;;;5.33;100.00;98767.44;5056505;28;19978;-79
2020/12/15 08:29:12;;;;;;;;;;;;;;;5.34;100.00;98774.56;5074349;28;19924;-79
2020/12/15 08:31:40;;;;;;;;;;;;;;;5.41;100.00;98780.88;5074127;28;20368;-78
2020/12/15 08:34:16;;;;;;;;;;;;;;;5.45;100.00;98783.66;5074076;28;19932;-78
2020/12/15 08:36:44;;;;;;;;;;;;;;;5.47;100.00;98790.38;5074013;28;19924;-79
2020/12/15 08:39:12;;;;;;;;;;;;;;;5.47;100.00;98790.38;5056220;28;19932;-79
2020/12/15 08:41:48;;;;;;;;;;;;;;;5.48;100.00;98799.50;5073806;28;19928;-78
2020/12/15 08:44:18;;;;;;;;;;;;;;;5.51;100.00;98780.06;5073720;28;19924;-78
2020/12/15 08:46:45;;;;;;;;;;;;;;;5.55;100.00;98789.19;5089456;28;19931;-78
2020/12/15 08:49:15;;;;;;;;;;;;;;;5.58;100.00;98801.47;5073866;28;19974;-78
2020/12/15 08:51:50;;;;;;;;;;;;;;;5.77;100.00;98800.25;5055803;28;19930;-78
2020/12/15 08:54:19;;;;;;;;;;;;;;;5.87;100.00;98816.91;5073810;28;19959;-78
2020/12/15 08:56:46;;;;;;;;;;;;;;;5.92;100.00;98832.34;5073658;28;19969;-77
2020/12/15 08:59:14;;;;;;;;;;;;;;;6.03;100.00;98835.91;5073800;28;19924;-76
2020/12/15 09:01:42;;;;;;;;;;;;;;;6.12;100.00;98842.63;5073428;28;19931;-76
2020/12/15 09:04:09;;;;;;;;;;;;;;;6.15;100.00;98843.81;5073171;28;19932;-76
2020/12/15 09:06:37;;;;;;;;;;;;;;;6.21;100.00;98851.31;5073385;28;19924;-76
2020/12/15 09:09:04;;;;;;;;;;;;;;;6.18;100.00;98845.78;5073521;28;20292;-76
2020/12/15 09:11:30;;;;;;;;;;;;;;;6.28;100.00;98851.31;5092679;28;19939;-76
2020/12/15 09:13:58;;;;;;;;;;;;;;;6.37;100.00;98848.91;5093851;28;20411;-76
2020/12/15 09:16:26;;;;;;;;;;;;;;;6.51;100.00;98854.41;5075696;28;19924;-76
2020/12/15 09:18:53;;;;;;;;;;;;;;;6.56;100.00;98858.75;5093272;28;19931;-76
2020/12/15 09:21:19;;;;;;;;;;;;;;;6.60;100.00;98865.09;5075495;28;19928;-75
2020/12/15 09:23:49;;;;;;;;;;;;;;;6.62;100.00;98855.16;5093793;28;20379;-76
2020/12/15 09:26:16;;;;;;;;;;;;;;;6.69;100.00;98862.69;5075703;28;19974;-76
2020/12/15 09:28:43;;;;;;;;;;;;;;;6.78;100.00;98861.06;5093655;28;19970;-76
2020/12/15 09:31:17;;;;;;;;;;;;;;;6.69;100.00;98852.38;5093615;28;20333;-77
2020/12/15 09:33:43;;;;;;;;;;;;;;;6.76;100.00;98854.31;5075480;28;19931;-75
2020/12/15 09:36:14;;;;;;;;;;;;;;;6.85;100.00;98868.56;5062558;28;19960;-75
2020/12/15 09:42:58;;;;;;;;;;;;;;;6.87;100.00;98871.72;5100895;28;19973;-75
2020/12/15 09:45:24;;;;;;;;;;;;;;;6.81;100.00;98865.81;5096663;28;20032;-76
2020/12/15 09:47:51;;;;;;;;;;;;;;;6.89;100.00;98864.56;5069259;28;19923;-76
2020/12/15 09:50:18;;;;;;;;;;;;;;;6.99;100.00;98868.50;5086921;28;19924;-76
2020/12/15 09:52:44;;;;;;;;;;;;;;;6.96;100.00;98860.97;5105656;28;19979;-76
2020/12/15 09:55:12;;;;;;;;;;;;;;;6.83;100.00;98862.63;5078945;28;20295;-76
2020/12/15 09:57:38;;;;;;;;;;;;;;;6.76;100.00;98854.31;5097079;28;20012;-77
2020/12/15 10:00:05;;;;;;;;;;;;;;;6.74;100.00;98845.63;5102181;28;19931;-75
2020/12/15 10:02:33;;;;;;;;;;;;;;;6.69;100.00;98854.34;5110260;28;20029;-76
2020/12/15 10:04:59;;;;;;;;;;;;;;;6.64;100.00;98849.22;5107454;28;19928;-76
2020/12/15 10:07:47;;;;;;;;;;;;;;;6.65;100.00;98842.47;5084559;28;20352;-76
2020/12/15 10:10:16;;;;;;;;;;;;;;;6.71;100.00;98844.41;5101119;28;19928;-76
2020/12/15 10:12:44;;;;;;;;;;;;;;;6.60;100.00;98846.47;5124399;27;20299;-76
2020/12/15 10:15:10;;;;;;;;;;;;;;;6.73;100.00;98855.13;5090716;28;19924;-77
2020/12/15 10:17:37;;;;;;;;;;;;;;;6.74;100.00;98856.72;5101273;28;19924;-76
2020/12/15 10:20:05;;;;;;;;;;;;;;;6.75;100.00;98858.28;5113356;28;19932;-77
2020/12/15 10:22:31;;;;;;;;;;;;;;;6.84;100.00;98861.44;5100273;28;19925;-77
2020/12/15 10:24:58;;;;;;;;;;;;;;;6.84;100.00;98867.78;5099757;28;19931;-76
2020/12/15 10:27:34;;;;;;;;;;;;;;;6.89;100.00;98874.91;5099882;28;20350;-78
2020/12/15 10:30:01;;;;;;;;;;;;;;;6.96;100.00;98875.66;5096798;28;19924;-77
2020/12/15 10:32:28;;;;;;;;;;;;;;;6.91;100.00;98864.16;5083554;28;19924;-77
2020/12/15 10:34:54;;;;;;;;;;;;;;;6.81;100.00;98859.47;5113505;27;20382;-77
2020/12/15 10:37:24;;;;;;;;;;;;;;;6.82;100.00;98858.25;5109190;27;19925;-75
2020/12/15 10:39:54;;;;;;;;;;;;;;;6.93;100.00;98876.47;5102011;28;19976;-77
2020/12/15 10:42:22;;;;;;;;;;;;;;;7.03;100.00;98874.81;5113140;28;19927;-78
2020/12/15 10:44:49;;;;;;;;;;;;;;;7.09;100.00;98873.19;5099517;28;19928;-76
2020/12/15 10:47:48;;;;;;;;;;;;;;;7.17;100.00;98874.75;5067089;28;19963;-75
2020/12/15 10:50:16;;;;;;;;;;;;;;;7.31;100.00;98881.00;5074676;28;19931;-77
2020/12/15 10:52:42;;;;;;;;;;;;;;;7.27;100.00;98869.13;5089521;28;19924;-76
2020/12/15 10:55:10;;;;;;;;;;;;;;;7.29;100.00;98868.72;5118698;27;19934;-76
2020/12/15 10:57:37;;;;;;;;;;;;;;;7.36;100.00;98874.25;5112826;28;20276;-75
2020/12/15 11:00:04;;;;;;;;;;;;;;;7.31;100.00;98869.88;5096012;28;20001;-76
2020/12/15 11:02:31;;;;;;;;;;;;;;;7.30;100.00;98870.28;5106316;28;19973;-74
2020/12/15 11:04:58;;;;;;;;;;;;;;;7.20;100.00;98862.81;5096228;28;19932;-76
2020/12/15 11:07:26;;;;;;;;;;;;;;;7.12;100.00;98855.72;5076745;28;19971;-78
2020/12/15 11:09:53;;;;;;;;;;;;;;;7.00;100.00;98842.28;5076012;28;19928;-76
2020/12/15 11:12:45;;;;;;;;;;;;;;;6.97;100.00;98832.78;5098264;28;19935;-77
2020/12/15 11:15:12;;;;;;;;;;;;;;;6.84;100.00;98828.91;5099755;28;20020;-77
2020/12/15 11:17:38;;;;;;;;;;;;;;;6.84;100.00;98822.56;5100010;28;19943;-77
2020/12/15 11:20:06;;;;;;;;;;;;;;;6.94;100.00;98816.13;5102158;28;19923;-77
2020/12/15 11:22:32;;;;;;;;;;;;;;;7.05;100.00;98825.22;5086928;28;20530;-77
2020/12/15 11:24:59;;;;;;;;;;;;;;;7.06;100.00;98818.44;5088973;28;19924;-78
2020/12/15 11:27:27;;;;;;;;;;;;;;;6.89;100.00;98811.03;5091612;28;20389;-78
2020/12/15 11:29:54;;;;;;;;;;;;;;;7.04;100.00;98816.06;5077154;28;20375;-77
2020/12/15 11:32:28;;;;;;;;;;;;;;;7.06;100.00;98804.56;5092864;28;20010;-77
2020/12/15 11:34:54;;;;;;;;;;;;;;;6.90;100.00;98799.50;5110309;28;20052;-78
2020/12/15 11:37:21;;;;;;;;;;;;;;;6.89;100.00;98791.59;5112055;28;19931;-77
2020/12/15 11:39:48;;;;;;;;;;;;;;;6.93;100.00;98798.69;5111635;28;19923;-75
2020/12/15 11:42:15;;;;;;;;;;;;;;;6.88;100.00;98798.31;5093025;28;19924;-76
2020/12/15 11:44:50;;;;;;;;;;;;;;;6.99;100.00;98799.06;5111110;28;19924;-76
2020/12/15 11:47:17;;;;;;;;;;;;;;;7.08;100.00;98810.50;5097303;28;19924;-78
2020/12/15 11:49:43;;;;;;;;;;;;;;;7.08;100.00;98804.94;5090742;28;19924;-78
2020/12/15 11:52:12;;;;;;;;;;;;;;;7.08;100.00;98799.41;5091111;28;19939;-75
2020/12/15 11:54:39;;;;;;;;;;;;;;;7.10;100.00;98797.00;5089968;28;19930;-73
2020/12/15 11:57:06;;;;;;;;;;;;;;;7.14;100.00;98800.53;5090740;28;19971;-78
2020/12/15 11:59:33;;;;;;;;;;;;;;;7.30;100.00;98801.63;5090242;28;20435;-77
2020/12/15 12:01:59;;;;;;;;;;;;;;;7.43;100.00;98788.03;5096137;28;19955;-77
2020/12/15 12:04:26;;;;;;;;;;;;;;;7.33;100.00;98783.31;5111189;28;19923;-79
2020/12/15 12:06:52;;;;;;;;;;;;;;;7.45;100.00;98770.94;5093501;28;19924;-77
2020/12/15 12:09:19;;;;;;;;;;;;;;;7.51;100.00;98781.22;5111281;28;19924;-78
2020/12/15 12:11:47;;;;;;;;;;;;;;;7.61;100.00;98777.56;5111161;28;19924;-78
2020/12/15 12:14:14;;;;;;;;;;;;;;;7.74;100.00;98772.28;5111063;28;19981;-79
2020/12/15 12:16:40;;;;;;;;;;;;;;;7.83;100.00;98784.50;5110963;28;19928;-78
2020/12/15 12:19:07;;;;;;;;;;;;;;;7.89;100.00;98773.72;5110621;28;19924;-78
2020/12/15 12:21:34;;;;;;;;;;;;;;;8.01;100.00;98768.41;5110848;28;20391;-78
2020/12/15 12:24:01;;;;;;;;;;;;;;;7.84;100.00;98758.28;5110423;28;19972;-78
2020/12/15 12:26:27;;;;;;;;;;;;;;;7.81;100.00;98747.97;5110693;28;19924;-78
2020/12/15 12:28:56;;;;;;;;;;;;;;;7.79;100.00;98750.38;5111405;28;19930;-78
2020/12/15 12:31:23;;;;;;;;;;;;;;;7.88;100.00;98733.97;5110671;28;19935;-78
2020/12/15 12:33:49;;;;;;;;;;;;;;;7.75;100.00;98688.44;5110257;28;19924;-79
2020/12/15 12:36:16;;;;;;;;;;;;;;;7.80;100.00;98674.06;5111254;28;19946;-78
2020/12/15 12:38:42;;;;;;;;;;;;;;;7.90;100.00;98684.28;5110415;28;19923;-78
2020/12/15 12:41:12;;;;;;;;;;;;;;;7.77;100.00;98674.88;5110842;28;20053;-78
2020/12/15 12:43:39;;;;;;;;;;;;;;;7.72;100.00;98667.03;5092795;28;19931;-77
2020/12/15 12:46:06;;;;;;;;;;;;;;;7.76;100.00;98661.41;5110096;28;19924;-78
2020/12/15 12:48:33;;;;;;;;;;;;;;;7.81;100.00;98656.19;5110359;28;19960;-78
2020/12/15 12:50:59;;;;;;;;;;;;;;;7.79;100.00;98655.00;5092814;28;20523;-77
2020/12/15 12:53:26;;;;;;;;;;;;;;;7.83;100.00;98653.00;5110231;28;20068;-78
2020/12/15 12:55:52;;;;;;;;;;;;;;;7.82;100.00;98652.19;5110654;28;20063;-77
2020/12/15 12:58:19;;;;;;;;;;;;;;;7.79;100.00;98639.13;5110612;28;20475;-77
2020/12/15 13:00:46;;;;;;;;;;;;;;;7.77;100.00;98630.38;5110032;28;19924;-78
2020/12/15 13:03:13;;;;;;;;;;;;;;;7.85;100.00;98620.75;5092595;28;19948;-78
2020/12/15 13:05:40;;;;;;;;;;;;;;;7.83;100.00;98622.41;5110162;28;19931;-77
2020/12/15 13:08:06;;;;;;;;;;;;;;;7.81;100.00;98616.44;5091949;28;19988;-77
2020/12/15 13:10:33;;;;;;;;;;;;;;;7.72;100.00;98599.47;5073653;28;20291;-77
2020/12/15 13:12:59;;;;;;;;;;;;;;;7.64;100.00;98598.78;5088318;28;20360;-77
2020/12/15 13:15:26;;;;;;;;;;;;;;;7.66;100.00;98599.16;5089589;28;20329;-77
2020/12/15 13:17:54;;;;;;;;;;;;;;;7.71;100.00;98595.13;5090511;28;20306;-78
2020/12/15 13:20:21;;;;;;;;;;;;;;;7.74;100.00;98592.28;5089903;28;20395;-77